sensor_id;sensor_type;location;lat;lon;timestamp;P1;durP1;ratioP1;P2;durP2;ratioP2
74320;SDS011;62738;45.772;4.804;2023-04-03T00:00:39;4.60;;;1.35;;
74320;SDS011;62738;45.772;4.804;2023-04-03T00:03:06;4.20;;;1.20;;
74320;SDS011;62738;45.772;4.804;2023-04-03T00:05:33;2.80;;;1.10;;
74320;SDS011;62738;45.772;4.804;2023-04-03T00:08:00;2.65;;;1.05;;
74320;SDS011;62738;45.772;4.804;2023-04-03T00:10:28;2.35;;;1.20;;
74320;SDS011;62738;45.772;4.804;2023-04-03T00:12:55;3.13;;;1.30;;
74320;SDS011;62738;45.772;4.804;2023-04-03T00:15:21;2.10;;;1.15;;
74320;SDS011;62738;45.772;4.804;2023-04-03T00:17:48;1.27;;;0.80;;
74320;SDS011;62738;45.772;4.804;2023-04-03T00:20:15;1.60;;;0.77;;
74320;SDS011;62738;45.772;4.804;2023-04-03T00:22:41;2.08;;;0.80;;
74320;SDS011;62738;45.772;4.804;2023-04-03T00:25:08;1.30;;;0.70;;
74320;SDS011;62738;45.772;4.804;2023-04-03T00:27:38;3.13;;;0.80;;
74320;SDS011;62738;45.772;4.804;2023-04-03T00:30:06;1.60;;;0.90;;
74320;SDS011;62738;45.772;4.804;2023-04-03T00:32:33;2.00;;;0.80;;
74320;SDS011;62738;45.772;4.804;2023-04-03T00:35:00;1.08;;;0.57;;
74320;SDS011;62738;45.772;4.804;2023-04-03T00:37:27;0.93;;;0.57;;
74320;SDS011;62738;45.772;4.804;2023-04-03T00:39:53;1.48;;;0.57;;
74320;SDS011;62738;45.772;4.804;2023-04-03T00:42:20;1.50;;;0.70;;
74320;SDS011;62738;45.772;4.804;2023-04-03T00:47:15;2.45;;;0.75;;
74320;SDS011;62738;45.772;4.804;2023-04-03T00:49:43;1.50;;;0.77;;
74320;SDS011;62738;45.772;4.804;2023-04-03T00:52:12;1.48;;;0.98;;
74320;SDS011;62738;45.772;4.804;2023-04-03T00:57:09;1.63;;;0.77;;
74320;SDS011;62738;45.772;4.804;2023-04-03T00:59:44;1.13;;;0.57;;
74320;SDS011;62738;45.772;4.804;2023-04-03T01:02:14;1.30;;;0.77;;
74320;SDS011;62738;45.772;4.804;2023-04-03T01:04:42;1.63;;;0.70;;
74320;SDS011;62738;45.772;4.804;2023-04-03T01:07:10;1.25;;;0.57;;
74320;SDS011;62738;45.772;4.804;2023-04-03T01:09:41;2.75;;;0.70;;
74320;SDS011;62738;45.772;4.804;2023-04-03T01:14:44;0.55;;;0.47;;
74320;SDS011;62738;45.772;4.804;2023-04-03T01:20:57;1.85;;;0.60;;
74320;SDS011;62738;45.772;4.804;2023-04-03T01:25:48;1.85;;;0.82;;
74320;SDS011;62738;45.772;4.804;2023-04-03T01:33:32;0.80;;;0.63;;
74320;SDS011;62738;45.772;4.804;2023-04-03T01:35:59;2.17;;;0.60;;
74320;SDS011;62738;45.772;4.804;2023-04-03T01:38:26;1.98;;;0.50;;
74320;SDS011;62738;45.772;4.804;2023-04-03T01:40:53;1.00;;;0.45;;
74320;SDS011;62738;45.772;4.804;2023-04-03T01:43:20;0.93;;;0.50;;
74320;SDS011;62738;45.772;4.804;2023-04-03T01:45:46;0.73;;;0.45;;
74320;SDS011;62738;45.772;4.804;2023-04-03T01:48:16;0.60;;;0.40;;
74320;SDS011;62738;45.772;4.804;2023-04-03T01:50:42;1.25;;;0.55;;
74320;SDS011;62738;45.772;4.804;2023-04-03T01:53:09;0.88;;;0.50;;
74320;SDS011;62738;45.772;4.804;2023-04-03T01:55:36;0.38;;;0.32;;
74320;SDS011;62738;45.772;4.804;2023-04-03T01:58:02;0.82;;;0.50;;
74320;SDS011;62738;45.772;4.804;2023-04-03T02:00:29;0.43;;;0.40;;
74320;SDS011;62738;45.772;4.804;2023-04-03T02:02:55;1.13;;;0.50;;
74320;SDS011;62738;45.772;4.804;2023-04-03T02:05:23;0.55;;;0.35;;
74320;SDS011;62738;45.772;4.804;2023-04-03T02:07:49;0.55;;;0.50;;
74320;SDS011;62738;45.772;4.804;2023-04-03T02:10:16;0.60;;;0.60;;
74320;SDS011;62738;45.772;4.804;2023-04-03T02:12:42;0.95;;;0.60;;
74320;SDS011;62738;45.772;4.804;2023-04-03T02:15:09;0.60;;;0.50;;
74320;SDS011;62738;45.772;4.804;2023-04-03T02:17:36;3.55;;;0.68;;
74320;SDS011;62738;45.772;4.804;2023-04-03T02:20:03;0.65;;;0.52;;
74320;SDS011;62738;45.772;4.804;2023-04-03T02:22:30;2.13;;;0.43;;
74320;SDS011;62738;45.772;4.804;2023-04-03T02:24:57;0.65;;;0.60;;
74320;SDS011;62738;45.772;4.804;2023-04-03T02:27:24;1.15;;;0.52;;
74320;SDS011;62738;45.772;4.804;2023-04-03T02:29:50;1.13;;;0.60;;
74320;SDS011;62738;45.772;4.804;2023-04-03T02:32:17;0.50;;;0.50;;
74320;SDS011;62738;45.772;4.804;2023-04-03T02:34:44;0.70;;;0.50;;
74320;SDS011;62738;45.772;4.804;2023-04-03T02:37:10;1.55;;;0.52;;
74320;SDS011;62738;45.772;4.804;2023-04-03T02:39:37;1.25;;;0.47;;
74320;SDS011;62738;45.772;4.804;2023-04-03T02:42:04;0.40;;;0.40;;
74320;SDS011;62738;45.772;4.804;2023-04-03T02:44:31;0.50;;;0.30;;
74320;SDS011;62738;45.772;4.804;2023-04-03T02:46:57;0.73;;;0.50;;
74320;SDS011;62738;45.772;4.804;2023-04-03T02:49:24;0.52;;;0.47;;
74320;SDS011;62738;45.772;4.804;2023-04-03T02:51:50;0.47;;;0.45;;
74320;SDS011;62738;45.772;4.804;2023-04-03T02:54:17;1.17;;;0.70;;
74320;SDS011;62738;45.772;4.804;2023-04-03T02:56:44;0.50;;;0.40;;
74320;SDS011;62738;45.772;4.804;2023-04-03T02:59:10;0.73;;;0.60;;
74320;SDS011;62738;45.772;4.804;2023-04-03T03:01:37;0.98;;;0.50;;
74320;SDS011;62738;45.772;4.804;2023-04-03T03:04:04;0.88;;;0.50;;
74320;SDS011;62738;45.772;4.804;2023-04-03T03:06:31;1.55;;;0.52;;
74320;SDS011;62738;45.772;4.804;2023-04-03T03:08:57;0.98;;;0.60;;
74320;SDS011;62738;45.772;4.804;2023-04-03T03:11:24;1.05;;;0.60;;
74320;SDS011;62738;45.772;4.804;2023-04-03T03:13:51;1.55;;;0.70;;
74320;SDS011;62738;45.772;4.804;2023-04-03T03:16:19;1.17;;;0.80;;
74320;SDS011;62738;45.772;4.804;2023-04-03T03:18:46;1.13;;;0.85;;
74320;SDS011;62738;45.772;4.804;2023-04-03T03:21:13;1.40;;;0.90;;
74320;SDS011;62738;45.772;4.804;2023-04-03T03:23:40;1.83;;;1.10;;
74320;SDS011;62738;45.772;4.804;2023-04-03T03:26:08;1.80;;;1.42;;
74320;SDS011;62738;45.772;4.804;2023-04-03T03:28:36;1.88;;;1.10;;
74320;SDS011;62738;45.772;4.804;2023-04-03T03:31:05;2.47;;;1.80;;
74320;SDS011;62738;45.772;4.804;2023-04-03T03:33:32;2.80;;;1.60;;
74320;SDS011;62738;45.772;4.804;2023-04-03T03:35:59;2.20;;;1.40;;
74320;SDS011;62738;45.772;4.804;2023-04-03T03:38:26;2.33;;;1.40;;
74320;SDS011;62738;45.772;4.804;2023-04-03T03:40:52;2.13;;;1.50;;
74320;SDS011;62738;45.772;4.804;2023-04-03T03:43:19;3.47;;;1.88;;
74320;SDS011;62738;45.772;4.804;2023-04-03T03:45:49;3.00;;;1.92;;
74320;SDS011;62738;45.772;4.804;2023-04-03T03:48:18;4.63;;;2.10;;
74320;SDS011;62738;45.772;4.804;2023-04-03T03:50:46;3.95;;;2.05;;
74320;SDS011;62738;45.772;4.804;2023-04-03T03:53:13;3.47;;;2.25;;
74320;SDS011;62738;45.772;4.804;2023-04-03T03:55:41;3.35;;;2.00;;
74320;SDS011;62738;45.772;4.804;2023-04-03T03:58:08;3.10;;;2.30;;
74320;SDS011;62738;45.772;4.804;2023-04-03T04:00:35;3.58;;;2.55;;
74320;SDS011;62738;45.772;4.804;2023-04-03T04:03:01;3.17;;;2.17;;
74320;SDS011;62738;45.772;4.804;2023-04-03T04:05:28;4.00;;;2.40;;
74320;SDS011;62738;45.772;4.804;2023-04-03T04:07:55;3.60;;;2.25;;
74320;SDS011;62738;45.772;4.804;2023-04-03T04:10:22;4.38;;;2.35;;
74320;SDS011;62738;45.772;4.804;2023-04-03T04:12:48;3.40;;;2.72;;
74320;SDS011;62738;45.772;4.804;2023-04-03T04:15:17;4.07;;;2.80;;
74320;SDS011;62738;45.772;4.804;2023-04-03T04:17:44;4.18;;;3.30;;
74320;SDS011;62738;45.772;4.804;2023-04-03T04:20:11;3.35;;;2.53;;
74320;SDS011;62738;45.772;4.804;2023-04-03T04:22:38;3.95;;;2.58;;
74320;SDS011;62738;45.772;4.804;2023-04-03T04:25:05;3.38;;;2.45;;
74320;SDS011;62738;45.772;4.804;2023-04-03T04:27:32;3.63;;;2.70;;
74320;SDS011;62738;45.772;4.804;2023-04-03T04:29:58;4.07;;;2.60;;
74320;SDS011;62738;45.772;4.804;2023-04-03T04:32:25;3.03;;;2.10;;
74320;SDS011;62738;45.772;4.804;2023-04-03T04:34:52;4.18;;;2.97;;
74320;SDS011;62738;45.772;4.804;2023-04-03T04:37:18;3.70;;;2.60;;
74320;SDS011;62738;45.772;4.804;2023-04-03T04:39:45;4.03;;;3.00;;
74320;SDS011;62738;45.772;4.804;2023-04-03T04:42:12;3.90;;;2.80;;
74320;SDS011;62738;45.772;4.804;2023-04-03T04:44:41;4.95;;;3.58;;
74320;SDS011;62738;45.772;4.804;2023-04-03T04:47:08;3.80;;;3.15;;
74320;SDS011;62738;45.772;4.804;2023-04-03T04:49:35;4.82;;;3.67;;
74320;SDS011;62738;45.772;4.804;2023-04-03T04:52:02;4.72;;;3.30;;
74320;SDS011;62738;45.772;4.804;2023-04-03T04:54:28;5.65;;;3.45;;
74320;SDS011;62738;45.772;4.804;2023-04-03T04:56:55;5.53;;;4.22;;
74320;SDS011;62738;45.772;4.804;2023-04-03T04:59:22;5.55;;;4.03;;
74320;SDS011;62738;45.772;4.804;2023-04-03T05:01:48;6.32;;;4.45;;
74320;SDS011;62738;45.772;4.804;2023-04-03T05:04:15;7.10;;;4.93;;
74320;SDS011;62738;45.772;4.804;2023-04-03T05:06:42;6.40;;;4.85;;
74320;SDS011;62738;45.772;4.804;2023-04-03T05:09:09;7.05;;;4.85;;
74320;SDS011;62738;45.772;4.804;2023-04-03T05:11:36;6.95;;;4.55;;
74320;SDS011;62738;45.772;4.804;2023-04-03T05:14:03;6.93;;;4.85;;
74320;SDS011;62738;45.772;4.804;2023-04-03T05:16:32;7.00;;;5.07;;
74320;SDS011;62738;45.772;4.804;2023-04-03T05:19:00;7.32;;;4.70;;
74320;SDS011;62738;45.772;4.804;2023-04-03T05:21:26;7.72;;;4.65;;
74320;SDS011;62738;45.772;4.804;2023-04-03T05:23:58;6.30;;;4.75;;
74320;SDS011;62738;45.772;4.804;2023-04-03T05:26:29;7.22;;;5.07;;
74320;SDS011;62738;45.772;4.804;2023-04-03T05:28:57;6.75;;;5.22;;
74320;SDS011;62738;45.772;4.804;2023-04-03T05:31:24;7.40;;;5.18;;
74320;SDS011;62738;45.772;4.804;2023-04-03T05:33:51;8.68;;;5.90;;
74320;SDS011;62738;45.772;4.804;2023-04-03T05:36:17;7.00;;;5.03;;
74320;SDS011;62738;45.772;4.804;2023-04-03T05:38:44;7.28;;;5.05;;
74320;SDS011;62738;45.772;4.804;2023-04-03T05:41:12;10.45;;;5.82;;
74320;SDS011;62738;45.772;4.804;2023-04-03T05:43:39;15.25;;;6.65;;
74320;SDS011;62738;45.772;4.804;2023-04-03T05:46:10;9.90;;;6.60;;
74320;SDS011;62738;45.772;4.804;2023-04-03T05:48:38;12.00;;;6.53;;
74320;SDS011;62738;45.772;4.804;2023-04-03T05:51:05;14.30;;;8.10;;
74320;SDS011;62738;45.772;4.804;2023-04-03T05:53:34;13.07;;;8.02;;
74320;SDS011;62738;45.772;4.804;2023-04-03T05:56:05;14.90;;;8.35;;
74320;SDS011;62738;45.772;4.804;2023-04-03T05:58:32;13.40;;;8.80;;
74320;SDS011;62738;45.772;4.804;2023-04-03T06:00:58;12.77;;;8.45;;
74320;SDS011;62738;45.772;4.804;2023-04-03T06:03:26;12.68;;;7.55;;
74320;SDS011;62738;45.772;4.804;2023-04-03T06:05:52;13.90;;;9.27;;
74320;SDS011;62738;45.772;4.804;2023-04-03T06:08:19;13.27;;;8.32;;
74320;SDS011;62738;45.772;4.804;2023-04-03T06:10:46;13.10;;;8.23;;
74320;SDS011;62738;45.772;4.804;2023-04-03T06:13:12;12.80;;;8.30;;
74320;SDS011;62738;45.772;4.804;2023-04-03T06:15:39;13.15;;;8.52;;
74320;SDS011;62738;45.772;4.804;2023-04-03T06:18:06;12.82;;;9.35;;
74320;SDS011;62738;45.772;4.804;2023-04-03T06:20:33;12.65;;;8.80;;
74320;SDS011;62738;45.772;4.804;2023-04-03T06:22:59;13.20;;;8.82;;
74320;SDS011;62738;45.772;4.804;2023-04-03T06:25:26;11.38;;;7.20;;
74320;SDS011;62738;45.772;4.804;2023-04-03T06:27:53;12.68;;;8.07;;
74320;SDS011;62738;45.772;4.804;2023-04-03T06:30:21;10.57;;;6.97;;
74320;SDS011;62738;45.772;4.804;2023-04-03T06:32:48;14.82;;;8.85;;
74320;SDS011;62738;45.772;4.804;2023-04-03T06:35:15;11.98;;;8.15;;
74320;SDS011;62738;45.772;4.804;2023-04-03T06:37:42;16.77;;;8.30;;
74320;SDS011;62738;45.772;4.804;2023-04-03T06:40:13;12.55;;;8.02;;
74320;SDS011;62738;45.772;4.804;2023-04-03T06:42:44;11.90;;;7.78;;
74320;SDS011;62738;45.772;4.804;2023-04-03T06:45:11;13.10;;;8.18;;
74320;SDS011;62738;45.772;4.804;2023-04-03T06:47:37;11.00;;;7.53;;
74320;SDS011;62738;45.772;4.804;2023-04-03T06:50:04;11.70;;;7.90;;
74320;SDS011;62738;45.772;4.804;2023-04-03T06:52:32;13.77;;;8.45;;
74320;SDS011;62738;45.772;4.804;2023-04-03T06:54:59;11.85;;;8.05;;
74320;SDS011;62738;45.772;4.804;2023-04-03T06:57:26;12.35;;;7.70;;
74320;SDS011;62738;45.772;4.804;2023-04-03T06:59:53;12.85;;;7.85;;
74320;SDS011;62738;45.772;4.804;2023-04-03T07:02:19;12.77;;;7.93;;
74320;SDS011;62738;45.772;4.804;2023-04-03T07:04:47;11.75;;;7.63;;
74320;SDS011;62738;45.772;4.804;2023-04-03T07:07:13;11.35;;;7.10;;
74320;SDS011;62738;45.772;4.804;2023-04-03T07:09:41;13.07;;;7.88;;
74320;SDS011;62738;45.772;4.804;2023-04-03T07:12:10;10.73;;;7.15;;
74320;SDS011;62738;45.772;4.804;2023-04-03T07:14:37;10.43;;;7.25;;
74320;SDS011;62738;45.772;4.804;2023-04-03T07:17:03;13.05;;;7.57;;
74320;SDS011;62738;45.772;4.804;2023-04-03T07:19:30;14.23;;;8.23;;
74320;SDS011;62738;45.772;4.804;2023-04-03T07:21:57;10.48;;;7.15;;
74320;SDS011;62738;45.772;4.804;2023-04-03T07:24:24;11.95;;;7.03;;
74320;SDS011;62738;45.772;4.804;2023-04-03T07:26:51;11.60;;;7.40;;
74320;SDS011;62738;45.772;4.804;2023-04-03T07:29:18;10.02;;;6.60;;
74320;SDS011;62738;45.772;4.804;2023-04-03T07:31:46;14.07;;;8.05;;
74320;SDS011;62738;45.772;4.804;2023-04-03T07:34:13;12.25;;;7.47;;
74320;SDS011;62738;45.772;4.804;2023-04-03T07:36:40;13.20;;;7.15;;
74320;SDS011;62738;45.772;4.804;2023-04-03T07:39:06;14.13;;;7.50;;
74320;SDS011;62738;45.772;4.804;2023-04-03T07:41:34;13.30;;;7.90;;
74320;SDS011;62738;45.772;4.804;2023-04-03T07:44:01;16.00;;;9.10;;
74320;SDS011;62738;45.772;4.804;2023-04-03T07:46:28;14.40;;;8.38;;
74320;SDS011;62738;45.772;4.804;2023-04-03T07:48:55;13.30;;;7.40;;
74320;SDS011;62738;45.772;4.804;2023-04-03T07:51:23;15.02;;;7.90;;
74320;SDS011;62738;45.772;4.804;2023-04-03T07:53:50;13.07;;;7.13;;
74320;SDS011;62738;45.772;4.804;2023-04-03T07:56:17;12.73;;;8.57;;
74320;SDS011;62738;45.772;4.804;2023-04-03T07:58:44;14.02;;;8.10;;
74320;SDS011;62738;45.772;4.804;2023-04-03T08:01:11;14.73;;;7.50;;
74320;SDS011;62738;45.772;4.804;2023-04-03T08:03:38;14.10;;;8.40;;
74320;SDS011;62738;45.772;4.804;2023-04-03T08:06:06;11.45;;;6.97;;
74320;SDS011;62738;45.772;4.804;2023-04-03T08:08:40;13.57;;;7.47;;
74320;SDS011;62738;45.772;4.804;2023-04-03T08:11:07;13.07;;;8.38;;
74320;SDS011;62738;45.772;4.804;2023-04-03T08:13:34;11.43;;;7.28;;
74320;SDS011;62738;45.772;4.804;2023-04-03T08:16:08;13.25;;;6.60;;
74320;SDS011;62738;45.772;4.804;2023-04-03T08:21:07;11.85;;;6.90;;
74320;SDS011;62738;45.772;4.804;2023-04-03T08:23:34;10.32;;;6.63;;
74320;SDS011;62738;45.772;4.804;2023-04-03T08:26:05;13.15;;;7.07;;
74320;SDS011;62738;45.772;4.804;2023-04-03T08:28:36;11.20;;;6.70;;
74320;SDS011;62738;45.772;4.804;2023-04-03T08:31:09;10.35;;;6.70;;
74320;SDS011;62738;45.772;4.804;2023-04-03T08:33:38;11.70;;;7.45;;
74320;SDS011;62738;45.772;4.804;2023-04-03T08:36:14;12.30;;;6.68;;
74320;SDS011;62738;45.772;4.804;2023-04-03T08:38:44;12.20;;;7.15;;
74320;SDS011;62738;45.772;4.804;2023-04-03T08:41:15;13.77;;;7.18;;
74320;SDS011;62738;45.772;4.804;2023-04-03T08:43:55;12.68;;;8.25;;
74320;SDS011;62738;45.772;4.804;2023-04-03T08:46:35;11.80;;;7.68;;
74320;SDS011;62738;45.772;4.804;2023-04-03T08:49:12;13.23;;;8.00;;
74320;SDS011;62738;45.772;4.804;2023-04-03T08:51:47;13.25;;;9.00;;
74320;SDS011;62738;45.772;4.804;2023-04-03T08:54:28;14.35;;;8.88;;
74320;SDS011;62738;45.772;4.804;2023-04-03T08:57:02;12.38;;;7.70;;
74320;SDS011;62738;45.772;4.804;2023-04-03T08:59:33;12.80;;;8.00;;
74320;SDS011;62738;45.772;4.804;2023-04-03T09:02:02;12.45;;;7.88;;
74320;SDS011;62738;45.772;4.804;2023-04-03T09:04:38;11.30;;;7.20;;
74320;SDS011;62738;45.772;4.804;2023-04-03T09:07:07;10.98;;;6.53;;
74320;SDS011;62738;45.772;4.804;2023-04-03T09:09:42;12.75;;;7.70;;
74320;SDS011;62738;45.772;4.804;2023-04-03T09:12:17;12.30;;;8.13;;
74320;SDS011;62738;45.772;4.804;2023-04-03T09:22:34;14.80;;;7.85;;
74320;SDS011;62738;45.772;4.804;2023-04-03T09:25:18;12.57;;;8.00;;
74320;SDS011;62738;45.772;4.804;2023-04-03T09:27:48;14.30;;;8.90;;
74320;SDS011;62738;45.772;4.804;2023-04-03T09:30:17;13.88;;;8.30;;
74320;SDS011;62738;45.772;4.804;2023-04-03T09:32:48;12.13;;;7.35;;
74320;SDS011;62738;45.772;4.804;2023-04-03T09:40:47;13.00;;;7.32;;
74320;SDS011;62738;45.772;4.804;2023-04-03T09:46:18;10.60;;;6.47;;
74320;SDS011;62738;45.772;4.804;2023-04-03T09:48:49;10.68;;;7.70;;
74320;SDS011;62738;45.772;4.804;2023-04-03T09:51:33;10.23;;;6.95;;
74320;SDS011;62738;45.772;4.804;2023-04-03T09:54:00;10.93;;;7.65;;
74320;SDS011;62738;45.772;4.804;2023-04-03T09:56:51;11.27;;;6.85;;
74320;SDS011;62738;45.772;4.804;2023-04-03T09:59:21;13.50;;;7.30;;
74320;SDS011;62738;45.772;4.804;2023-04-03T10:02:02;10.52;;;7.63;;
74320;SDS011;62738;45.772;4.804;2023-04-03T10:04:44;9.02;;;5.97;;
74320;SDS011;62738;45.772;4.804;2023-04-03T10:07:26;10.05;;;6.70;;
74320;SDS011;62738;45.772;4.804;2023-04-03T10:10:14;11.27;;;7.28;;
74320;SDS011;62738;45.772;4.804;2023-04-03T10:12:46;10.98;;;7.00;;
74320;SDS011;62738;45.772;4.804;2023-04-03T10:15:13;8.88;;;6.10;;
74320;SDS011;62738;45.772;4.804;2023-04-03T10:17:54;11.48;;;6.70;;
74320;SDS011;62738;45.772;4.804;2023-04-03T10:20:42;10.18;;;6.72;;
74320;SDS011;62738;45.772;4.804;2023-04-03T10:26:27;10.10;;;6.82;;
74320;SDS011;62738;45.772;4.804;2023-04-03T10:34:47;8.18;;;5.47;;
74320;SDS011;62738;45.772;4.804;2023-04-03T10:37:33;11.07;;;6.10;;
74320;SDS011;62738;45.772;4.804;2023-04-03T10:45:30;9.43;;;5.60;;
74320;SDS011;62738;45.772;4.804;2023-04-03T10:51:25;8.32;;;5.60;;
74320;SDS011;62738;45.772;4.804;2023-04-03T10:54:03;11.07;;;6.35;;
74320;SDS011;62738;45.772;4.804;2023-04-03T11:02:11;8.13;;;5.20;;
74320;SDS011;62738;45.772;4.804;2023-04-03T11:04:42;7.82;;;4.68;;
74320;SDS011;62738;45.772;4.804;2023-04-03T11:07:18;8.35;;;5.30;;
74320;SDS011;62738;45.772;4.804;2023-04-03T11:09:49;8.90;;;5.03;;
74320;SDS011;62738;45.772;4.804;2023-04-03T11:15:02;6.78;;;5.35;;
74320;SDS011;62738;45.772;4.804;2023-04-03T11:17:37;6.60;;;3.85;;
74320;SDS011;62738;45.772;4.804;2023-04-03T11:20:14;8.55;;;5.57;;
74320;SDS011;62738;45.772;4.804;2023-04-03T11:22:47;6.30;;;4.82;;
74320;SDS011;62738;45.772;4.804;2023-04-03T11:25:19;7.93;;;5.22;;
74320;SDS011;62738;45.772;4.804;2023-04-03T11:30:28;6.93;;;4.43;;
74320;SDS011;62738;45.772;4.804;2023-04-03T11:35:36;7.03;;;4.28;;
74320;SDS011;62738;45.772;4.804;2023-04-03T11:38:10;8.13;;;4.53;;
74320;SDS011;62738;45.772;4.804;2023-04-03T11:40:44;5.95;;;3.92;;
74320;SDS011;62738;45.772;4.804;2023-04-03T11:43:20;7.57;;;4.82;;
74320;SDS011;62738;45.772;4.804;2023-04-03T11:45:54;7.53;;;5.60;;
74320;SDS011;62738;45.772;4.804;2023-04-03T11:50:55;8.10;;;4.93;;
74320;SDS011;62738;45.772;4.804;2023-04-03T11:53:33;8.75;;;5.05;;
74320;SDS011;62738;45.772;4.804;2023-04-03T11:56:02;8.60;;;5.57;;
74320;SDS011;62738;45.772;4.804;2023-04-03T11:58:32;8.23;;;4.82;;
74320;SDS011;62738;45.772;4.804;2023-04-03T12:03:30;7.03;;;4.55;;
74320;SDS011;62738;45.772;4.804;2023-04-03T12:13:40;6.75;;;4.22;;
74320;SDS011;62738;45.772;4.804;2023-04-03T12:16:32;6.78;;;3.95;;
74320;SDS011;62738;45.772;4.804;2023-04-03T12:32:06;7.70;;;4.10;;
74320;SDS011;62738;45.772;4.804;2023-04-03T12:45:44;4.82;;;3.28;;
74320;SDS011;62738;45.772;4.804;2023-04-03T12:48:18;4.93;;;3.53;;
74320;SDS011;62738;45.772;4.804;2023-04-03T12:50:50;7.60;;;4.35;;
74320;SDS011;62738;45.772;4.804;2023-04-03T12:53:18;5.38;;;3.40;;
74320;SDS011;62738;45.772;4.804;2023-04-03T12:55:55;6.38;;;3.92;;
74320;SDS011;62738;45.772;4.804;2023-04-03T12:58:24;5.85;;;3.90;;
74320;SDS011;62738;45.772;4.804;2023-04-03T13:01:26;5.47;;;3.90;;
74320;SDS011;62738;45.772;4.804;2023-04-03T13:03:54;7.07;;;4.20;;
74320;SDS011;62738;45.772;4.804;2023-04-03T13:06:43;8.15;;;3.95;;
74320;SDS011;62738;45.772;4.804;2023-04-03T13:09:43;6.15;;;3.45;;
74320;SDS011;62738;45.772;4.804;2023-04-03T13:12:03;5.90;;;3.40;;
74320;SDS011;62738;45.772;4.804;2023-04-03T13:14:40;4.63;;;2.90;;
74320;SDS011;62738;45.772;4.804;2023-04-03T13:17:18;4.80;;;3.10;;
74320;SDS011;62738;45.772;4.804;2023-04-03T13:19:45;6.30;;;3.30;;
74320;SDS011;62738;45.772;4.804;2023-04-03T13:25:01;4.43;;;3.03;;
74320;SDS011;62738;45.772;4.804;2023-04-03T13:27:32;4.47;;;2.75;;
74320;SDS011;62738;45.772;4.804;2023-04-03T13:30:00;5.70;;;3.58;;
74320;SDS011;62738;45.772;4.804;2023-04-03T13:32:28;4.55;;;2.40;;
74320;SDS011;62738;45.772;4.804;2023-04-03T13:34:58;4.18;;;2.88;;
74320;SDS011;62738;45.772;4.804;2023-04-03T13:37:37;4.60;;;2.72;;
74320;SDS011;62738;45.772;4.804;2023-04-03T13:40:09;4.50;;;2.78;;
74320;SDS011;62738;45.772;4.804;2023-04-03T13:42:39;5.55;;;3.22;;
74320;SDS011;62738;45.772;4.804;2023-04-03T13:45:28;5.38;;;2.70;;
74320;SDS011;62738;45.772;4.804;2023-04-03T13:50:51;11.20;;;2.47;;
74320;SDS011;62738;45.772;4.804;2023-04-03T13:53:44;3.25;;;2.40;;
74320;SDS011;62738;45.772;4.804;2023-04-03T13:56:21;4.30;;;2.60;;
74320;SDS011;62738;45.772;4.804;2023-04-03T14:01:45;4.18;;;2.20;;
74320;SDS011;62738;45.772;4.804;2023-04-03T14:04:19;6.28;;;2.30;;
74320;SDS011;62738;45.772;4.804;2023-04-03T14:06:48;2.95;;;1.95;;
74320;SDS011;62738;45.772;4.804;2023-04-03T14:09:15;4.47;;;2.53;;
74320;SDS011;62738;45.772;4.804;2023-04-03T14:11:43;3.00;;;2.03;;
74320;SDS011;62738;45.772;4.804;2023-04-03T14:14:13;3.95;;;1.88;;
74320;SDS011;62738;45.772;4.804;2023-04-03T14:16:43;3.08;;;2.10;;
74320;SDS011;62738;45.772;4.804;2023-04-03T14:19:24;6.13;;;2.58;;
74320;SDS011;62738;45.772;4.804;2023-04-03T14:21:59;5.65;;;2.45;;
74320;SDS011;62738;45.772;4.804;2023-04-03T14:24:27;3.45;;;2.22;;
74320;SDS011;62738;45.772;4.804;2023-04-03T14:26:54;3.42;;;2.35;;
74320;SDS011;62738;45.772;4.804;2023-04-03T14:29:22;3.55;;;2.35;;
74320;SDS011;62738;45.772;4.804;2023-04-03T14:31:49;3.83;;;2.50;;
74320;SDS011;62738;45.772;4.804;2023-04-03T14:34:25;3.50;;;2.10;;
74320;SDS011;62738;45.772;4.804;2023-04-03T14:36:52;3.72;;;2.30;;
74320;SDS011;62738;45.772;4.804;2023-04-03T14:39:19;3.22;;;2.30;;
74320;SDS011;62738;45.772;4.804;2023-04-03T14:41:45;3.65;;;2.45;;
74320;SDS011;62738;45.772;4.804;2023-04-03T14:44:13;3.03;;;2.25;;
74320;SDS011;62738;45.772;4.804;2023-04-03T14:46:41;3.47;;;2.15;;
74320;SDS011;62738;45.772;4.804;2023-04-03T14:49:21;5.43;;;2.28;;
74320;SDS011;62738;45.772;4.804;2023-04-03T14:51:50;3.78;;;2.10;;
74320;SDS011;62738;45.772;4.804;2023-04-03T14:54:20;2.75;;;2.00;;
74320;SDS011;62738;45.772;4.804;2023-04-03T14:56:52;3.75;;;2.25;;
74320;SDS011;62738;45.772;4.804;2023-04-03T14:59:21;8.07;;;2.78;;
74320;SDS011;62738;45.772;4.804;2023-04-03T15:01:48;3.30;;;1.92;;
74320;SDS011;62738;45.772;4.804;2023-04-03T15:04:17;4.65;;;2.10;;
74320;SDS011;62738;45.772;4.804;2023-04-03T15:06:46;5.05;;;2.30;;
74320;SDS011;62738;45.772;4.804;2023-04-03T15:09:21;3.38;;;2.10;;
74320;SDS011;62738;45.772;4.804;2023-04-03T15:11:50;7.43;;;2.08;;
74320;SDS011;62738;45.772;4.804;2023-04-03T15:14:18;3.95;;;2.10;;
74320;SDS011;62738;45.772;4.804;2023-04-03T15:17:02;3.15;;;2.25;;
74320;SDS011;62738;45.772;4.804;2023-04-03T15:19:34;3.10;;;2.20;;
74320;SDS011;62738;45.772;4.804;2023-04-03T15:22:03;4.13;;;2.30;;
74320;SDS011;62738;45.772;4.804;2023-04-03T15:24:30;4.35;;;2.50;;
74320;SDS011;62738;45.772;4.804;2023-04-03T15:26:57;3.15;;;2.40;;
74320;SDS011;62738;45.772;4.804;2023-04-03T15:29:23;3.22;;;1.92;;
74320;SDS011;62738;45.772;4.804;2023-04-03T15:31:50;4.03;;;2.20;;
74320;SDS011;62738;45.772;4.804;2023-04-03T15:34:19;3.50;;;2.00;;
74320;SDS011;62738;45.772;4.804;2023-04-03T15:36:48;3.20;;;2.00;;
74320;SDS011;62738;45.772;4.804;2023-04-03T15:39:16;4.18;;;2.05;;
74320;SDS011;62738;45.772;4.804;2023-04-03T15:41:43;4.75;;;1.95;;
74320;SDS011;62738;45.772;4.804;2023-04-03T15:44:11;3.33;;;2.10;;
74320;SDS011;62738;45.772;4.804;2023-04-03T15:46:38;2.10;;;1.63;;
74320;SDS011;62738;45.772;4.804;2023-04-03T15:49:05;3.42;;;1.67;;
74320;SDS011;62738;45.772;4.804;2023-04-03T15:51:32;2.72;;;1.88;;
74320;SDS011;62738;45.772;4.804;2023-04-03T15:53:58;2.65;;;1.90;;
74320;SDS011;62738;45.772;4.804;2023-04-03T15:56:25;2.38;;;1.50;;
74320;SDS011;62738;45.772;4.804;2023-04-03T15:58:51;3.70;;;1.77;;
74320;SDS011;62738;45.772;4.804;2023-04-03T16:01:18;3.45;;;1.95;;
74320;SDS011;62738;45.772;4.804;2023-04-03T16:03:45;3.00;;;2.00;;
74320;SDS011;62738;45.772;4.804;2023-04-03T16:06:16;2.47;;;1.45;;
74320;SDS011;62738;45.772;4.804;2023-04-03T16:08:44;2.55;;;1.65;;
74320;SDS011;62738;45.772;4.804;2023-04-03T16:11:13;2.60;;;1.50;;
74320;SDS011;62738;45.772;4.804;2023-04-03T16:13:40;3.00;;;1.55;;
74320;SDS011;62738;45.772;4.804;2023-04-03T16:16:08;3.03;;;1.60;;
74320;SDS011;62738;45.772;4.804;2023-04-03T16:18:36;2.80;;;1.83;;
74320;SDS011;62738;45.772;4.804;2023-04-03T16:21:03;2.90;;;1.65;;
74320;SDS011;62738;45.772;4.804;2023-04-03T16:23:29;3.40;;;1.73;;
74320;SDS011;62738;45.772;4.804;2023-04-03T16:25:56;2.53;;;1.58;;
74320;SDS011;62738;45.772;4.804;2023-04-03T16:28:23;3.33;;;1.80;;
74320;SDS011;62738;45.772;4.804;2023-04-03T16:30:50;2.95;;;1.77;;
74320;SDS011;62738;45.772;4.804;2023-04-03T16:33:17;3.78;;;1.42;;
74320;SDS011;62738;45.772;4.804;2023-04-03T16:35:48;4.85;;;1.90;;
74320;SDS011;62738;45.772;4.804;2023-04-03T16:38:15;3.00;;;2.00;;
74320;SDS011;62738;45.772;4.804;2023-04-03T16:40:41;2.00;;;1.60;;
74320;SDS011;62738;45.772;4.804;2023-04-03T16:43:08;3.33;;;1.92;;
74320;SDS011;62738;45.772;4.804;2023-04-03T16:45:35;2.92;;;1.70;;
74320;SDS011;62738;45.772;4.804;2023-04-03T16:48:02;3.35;;;1.88;;
74320;SDS011;62738;45.772;4.804;2023-04-03T16:50:29;2.38;;;1.67;;